Mist van: 22-01-2020 04:59 tot: 11:59 waarschuwing voor: Mist niveau: Geel info button
Sneeuw/IJzel/Bevriezing van: 22-01-2020 04:59 tot: 09:59 waarschuwing voor: Sneeuw/IJzel/Bevriezing niveau: Geel info button


waarschuwing voor winterse neerslag Meer informatie rain snow radar


Bezoek ook deze websites:

Template documentation
and downloads

And another site



METAR rapporten vliegvelden


Warning: curl_setopt(): CURLOPT_FOLLOWLOCATION cannot be activated when an open_basedir is set in /home/w16454we/public_html/weather28/metar/wsMetarTxt.php on line 747

Warning: curl_setopt(): CURLOPT_FOLLOWLOCATION cannot be activated when an open_basedir is set in /home/w16454we/public_html/weather28/metar/wsMetarTxt.php on line 747

Warning: curl_setopt(): CURLOPT_FOLLOWLOCATION cannot be activated when an open_basedir is set in /home/w16454we/public_html/weather28/metar/wsMetarTxt.php on line 747

Warning: curl_setopt(): CURLOPT_FOLLOWLOCATION cannot be activated when an open_basedir is set in /home/w16454we/public_html/weather28/metar/wsMetarTxt.php on line 747

Warning: curl_setopt(): CURLOPT_FOLLOWLOCATION cannot be activated when an open_basedir is set in /home/w16454we/public_html/weather28/metar/wsMetarTxt.php on line 747

Warning: curl_setopt(): CURLOPT_FOLLOWLOCATION cannot be activated when an open_basedir is set in /home/w16454we/public_html/weather28/metar/wsMetarTxt.php on line 747
   
EHVK - Volkel Rnlafb, Netherlands
Afstand tot: ZW 18 km
Gewijzigd: 22-01-2020 06:25
Freezing, Mist, Bewolking  
Freezing, Mist, Bewolking  
   Wind: ZZW 9.3 km/h
Wind: ZZW 9.3 km/h
Temperatuur: -1°C
Voelt als: -4°C
Dauwpunt: -1°C
Vochtigheid: 100%
Barometer: 1036 hPa
Bewolking: Bewolking
Zicht: 1 km
Bewolking: Bewolking
EHVK 220525Z AUTO 21005KT 180V240 0700 FZFG OVC000 M01/M01 Q1036 RED
EDLV - Niederrhein, Germany
Afstand tot: ZO 25 km
Gewijzigd: 22-01-2020 06:20
Nevel, Bewolking  
Nevel, Bewolking  
   Wind: ZZW 7.4 km/h
Wind: ZZW 7.4 km/h
Temperatuur: -1°C
Voelt als: -4°C
Dauwpunt: -1°C
Vochtigheid: 100%
Barometer: 1036 hPa
Bewolking: Bewolking
Zicht: 3 km
Bewolking: Bewolking 200 ft
EDLV 220520Z 21004KT 190V250 2900 BR OVC002 M01/M01 Q1036
EHDL - Deelen Rnlafb, Netherlands
Afstand tot: N 35 km
Gewijzigd: 22-01-2020 06:25
Nevel, Bewolking  
Nevel, Bewolking  
   Wind: ZW 9.3 km/h
Wind: ZW 9.3 km/h
Temperatuur: 1°C
Voelt als: -2°C
Dauwpunt: 1°C
Vochtigheid: 100%
Barometer: 1036 hPa
Bewolking: Bewolking
Zicht: 1 km
Bewolking: Bewolking 100 ft
EHDL 220525Z AUTO 23005KT 180V260 1000 BR OVC001 01/01 Q1036 RED
EHEH - Eindhoven Rnlafb, Netherlands
Afstand tot: ZW 48 km
Gewijzigd: 22-01-2020 06:25
Nevel, Bewolking  
Nevel, Bewolking  
   Wind: ZZW 7.4 km/h
Wind: ZZW 7.4 km/h
Temperatuur: -1°C
Voelt als: -4°C
Dauwpunt: -1°C
Vochtigheid: 100%
Barometer: 1037 hPa
Bewolking: Bewolking
Zicht: 2 km
Bewolking: Grotendeels bewolkt 100 ft,
Bewolking 200 ft
EHEH 220525Z AUTO 21004KT 1800 BR BKN001 OVC002 M01/M01 Q1037 RED RMK LVP DELTA
EHGR - Gilze-Rijen Rnla, Netherlands
Afstand tot: WZW 70 km
Gewijzigd: 22-01-2020 06:25
Mist, Bewolking  
Mist, Bewolking  
   Wind: ZZW 7.4 km/h
Wind: ZZW 7.4 km/h
Temperatuur: 1°C
Voelt als: -1°C
Dauwpunt: 1°C
Vochtigheid: 100%
Barometer: 1037 hPa
Bewolking: Bewolking
Zicht: 1 km
Bewolking: Bewolking
EHGR 220525Z AUTO 20004KT 160V230 0550 FG VV000 01/01 Q1037 RED
EBBL - Kleine-Brogel(Ba, Belgium
Afstand tot: ZZW 71 km
Gewijzigd: 22-01-2020 05:55
Mist, Bewolking  
Mist, Bewolking  
   Wind: varieert 3.7 km/h
Wind: varieert 3.7 km/h
Temperatuur: -3°C
Dauwpunt: -3°C
Vochtigheid: 100%
Barometer: 1037 hPa
Bewolking: Bewolking
Zicht: 0 km
Bewolking: Bewolking 200 ft
EBBL 220455Z AUTO VRB02KT 0300 FG OVC002/// M03/M03 Q1037 RED

Script ontwikkeld door  Saratoga-weather.org Aangepast voor de template door  Weerstation Leuven

U vindt ons ook hier:

Het Weer Aktueel

UK Metoffice

WeatherCloud

Weather Underground

AWEKAS

HAMweather, WeatherForYou, PWS Weather

Apparatuur in gebruik:

Weerstation
Davis Vantage Vue

Weerprogramma
Meteobridge

Davis Vantage Vue

Meteobridge